sensor_id;sensor_type;location;lat;lon;timestamp;P1;durP1;ratioP1;P2;durP2;ratioP2
58137;SDS011;43955;47.362;18.930;2023-03-31T00:00:45;10.68;;;6.15;;
58137;SDS011;43955;47.362;18.930;2023-03-31T00:03:13;9.07;;;6.00;;
58137;SDS011;43955;47.362;18.930;2023-03-31T00:05:48;10.15;;;6.47;;
58137;SDS011;43955;47.362;18.930;2023-03-31T00:08:21;8.93;;;7.07;;
58137;SDS011;43955;47.362;18.930;2023-03-31T00:10:48;11.20;;;7.07;;
58137;SDS011;43955;47.362;18.930;2023-03-31T00:13:16;9.68;;;6.68;;
58137;SDS011;43955;47.362;18.930;2023-03-31T00:15:43;10.20;;;7.05;;
58137;SDS011;43955;47.362;18.930;2023-03-31T00:18:11;11.52;;;6.60;;
58137;SDS011;43955;47.362;18.930;2023-03-31T00:20:39;13.15;;;6.07;;
58137;SDS011;43955;47.362;18.930;2023-03-31T00:23:09;8.80;;;5.95;;
58137;SDS011;43955;47.362;18.930;2023-03-31T00:25:39;7.07;;;5.57;;
58137;SDS011;43955;47.362;18.930;2023-03-31T00:28:07;12.27;;;6.28;;
58137;SDS011;43955;47.362;18.930;2023-03-31T00:30:35;8.93;;;5.78;;
58137;SDS011;43955;47.362;18.930;2023-03-31T00:33:02;10.10;;;5.97;;
58137;SDS011;43955;47.362;18.930;2023-03-31T00:35:30;8.93;;;5.97;;
58137;SDS011;43955;47.362;18.930;2023-03-31T00:37:58;9.88;;;6.22;;
58137;SDS011;43955;47.362;18.930;2023-03-31T00:40:25;8.07;;;5.10;;
58137;SDS011;43955;47.362;18.930;2023-03-31T00:42:52;9.07;;;5.78;;
58137;SDS011;43955;47.362;18.930;2023-03-31T00:45:21;10.18;;;5.87;;
58137;SDS011;43955;47.362;18.930;2023-03-31T00:48:01;9.57;;;5.18;;
58137;SDS011;43955;47.362;18.930;2023-03-31T00:50:39;9.30;;;5.62;;
58137;SDS011;43955;47.362;18.930;2023-03-31T00:53:13;8.55;;;5.78;;
58137;SDS011;43955;47.362;18.930;2023-03-31T00:55:44;7.37;;;4.97;;
58137;SDS011;43955;47.362;18.930;2023-03-31T00:58:13;8.93;;;5.25;;
58137;SDS011;43955;47.362;18.930;2023-03-31T01:00:41;9.48;;;5.53;;
58137;SDS011;43955;47.362;18.930;2023-03-31T01:03:08;8.68;;;6.32;;
58137;SDS011;43955;47.362;18.930;2023-03-31T01:05:44;9.60;;;5.30;;
58137;SDS011;43955;47.362;18.930;2023-03-31T01:08:17;8.00;;;5.45;;
58137;SDS011;43955;47.362;18.930;2023-03-31T01:10:47;9.63;;;5.30;;
58137;SDS011;43955;47.362;18.930;2023-03-31T01:13:17;9.70;;;5.37;;
58137;SDS011;43955;47.362;18.930;2023-03-31T01:15:45;12.77;;;5.68;;
58137;SDS011;43955;47.362;18.930;2023-03-31T01:18:13;9.00;;;6.03;;
58137;SDS011;43955;47.362;18.930;2023-03-31T01:43:12;9.13;;;5.40;;
58137;SDS011;43955;47.362;18.930;2023-03-31T01:52:03;10.32;;;4.97;;
58137;SDS011;43955;47.362;18.930;2023-03-31T01:54:58;8.32;;;5.25;;
58137;SDS011;43955;47.362;18.930;2023-03-31T01:57:23;12.00;;;5.37;;
58137;SDS011;43955;47.362;18.930;2023-03-31T02:02:57;8.75;;;5.12;;
58137;SDS011;43955;47.362;18.930;2023-03-31T02:05:34;9.85;;;5.00;;
58137;SDS011;43955;47.362;18.930;2023-03-31T02:08:05;6.22;;;4.43;;
58137;SDS011;43955;47.362;18.930;2023-03-31T02:10:36;8.55;;;5.07;;
58137;SDS011;43955;47.362;18.930;2023-03-31T02:13:05;7.65;;;4.68;;
58137;SDS011;43955;47.362;18.930;2023-03-31T02:15:34;7.90;;;4.82;;
58137;SDS011;43955;47.362;18.930;2023-03-31T02:18:05;9.23;;;5.20;;
58137;SDS011;43955;47.362;18.930;2023-03-31T02:20:39;9.00;;;5.20;;
58137;SDS011;43955;47.362;18.930;2023-03-31T02:23:09;8.82;;;4.87;;
58137;SDS011;43955;47.362;18.930;2023-03-31T02:25:44;8.07;;;5.25;;
58137;SDS011;43955;47.362;18.930;2023-03-31T02:28:19;10.25;;;5.18;;
58137;SDS011;43955;47.362;18.930;2023-03-31T02:33:39;10.95;;;4.60;;
58137;SDS011;43955;47.362;18.930;2023-03-31T02:36:06;7.62;;;4.70;;
58137;SDS011;43955;47.362;18.930;2023-03-31T02:38:36;8.70;;;4.70;;
58137;SDS011;43955;47.362;18.930;2023-03-31T02:41:06;9.15;;;5.15;;
58137;SDS011;43955;47.362;18.930;2023-03-31T02:43:33;7.22;;;4.18;;
58137;SDS011;43955;47.362;18.930;2023-03-31T02:46:00;7.30;;;3.62;;
58137;SDS011;43955;47.362;18.930;2023-03-31T02:48:39;7.47;;;4.12;;
58137;SDS011;43955;47.362;18.930;2023-03-31T02:51:23;8.70;;;5.03;;
58137;SDS011;43955;47.362;18.930;2023-03-31T03:05:40;7.50;;;4.28;;
58137;SDS011;43955;47.362;18.930;2023-03-31T03:15:57;10.18;;;5.18;;
58137;SDS011;43955;47.362;18.930;2023-03-31T03:18:31;7.55;;;4.62;;
58137;SDS011;43955;47.362;18.930;2023-03-31T03:20:58;6.43;;;4.53;;
58137;SDS011;43955;47.362;18.930;2023-03-31T03:23:25;11.18;;;5.05;;
58137;SDS011;43955;47.362;18.930;2023-03-31T03:25:53;7.93;;;5.25;;
58137;SDS011;43955;47.362;18.930;2023-03-31T03:28:21;6.53;;;4.62;;
58137;SDS011;43955;47.362;18.930;2023-03-31T03:30:48;10.07;;;5.18;;
58137;SDS011;43955;47.362;18.930;2023-03-31T03:33:16;7.80;;;5.25;;
58137;SDS011;43955;47.362;18.930;2023-03-31T03:35:43;6.32;;;3.92;;
58137;SDS011;43955;47.362;18.930;2023-03-31T03:38:10;9.25;;;4.45;;
58137;SDS011;43955;47.362;18.930;2023-03-31T03:40:38;10.18;;;4.72;;
58137;SDS011;43955;47.362;18.930;2023-03-31T03:43:05;7.43;;;4.55;;
58137;SDS011;43955;47.362;18.930;2023-03-31T03:45:32;9.05;;;5.78;;
58137;SDS011;43955;47.362;18.930;2023-03-31T03:48:00;7.97;;;4.78;;
58137;SDS011;43955;47.362;18.930;2023-03-31T03:50:27;7.43;;;4.40;;
58137;SDS011;43955;47.362;18.930;2023-03-31T03:52:54;6.93;;;4.25;;
58137;SDS011;43955;47.362;18.930;2023-03-31T03:55:22;7.82;;;4.28;;
58137;SDS011;43955;47.362;18.930;2023-03-31T03:57:49;8.15;;;4.50;;
58137;SDS011;43955;47.362;18.930;2023-03-31T04:00:17;6.93;;;4.22;;
58137;SDS011;43955;47.362;18.930;2023-03-31T04:02:44;7.20;;;5.10;;
58137;SDS011;43955;47.362;18.930;2023-03-31T04:05:12;8.98;;;4.57;;
58137;SDS011;43955;47.362;18.930;2023-03-31T04:07:40;10.52;;;6.78;;
58137;SDS011;43955;47.362;18.930;2023-03-31T04:10:08;12.27;;;7.53;;
58137;SDS011;43955;47.362;18.930;2023-03-31T04:12:35;16.05;;;8.95;;
58137;SDS011;43955;47.362;18.930;2023-03-31T04:15:03;8.55;;;5.60;;
58137;SDS011;43955;47.362;18.930;2023-03-31T04:17:31;9.98;;;4.70;;
58137;SDS011;43955;47.362;18.930;2023-03-31T04:19:59;6.75;;;4.97;;
58137;SDS011;43955;47.362;18.930;2023-03-31T04:22:31;9.88;;;5.28;;
58137;SDS011;43955;47.362;18.930;2023-03-31T04:25:07;8.95;;;5.05;;
58137;SDS011;43955;47.362;18.930;2023-03-31T04:27:43;8.98;;;6.30;;
58137;SDS011;43955;47.362;18.930;2023-03-31T04:30:13;10.90;;;6.60;;
58137;SDS011;43955;47.362;18.930;2023-03-31T04:32:52;13.32;;;6.62;;
58137;SDS011;43955;47.362;18.930;2023-03-31T04:35:22;9.40;;;5.78;;
58137;SDS011;43955;47.362;18.930;2023-03-31T04:37:51;12.52;;;5.57;;
58137;SDS011;43955;47.362;18.930;2023-03-31T04:40:25;9.90;;;5.20;;
58137;SDS011;43955;47.362;18.930;2023-03-31T04:42:52;6.90;;;4.10;;
58137;SDS011;43955;47.362;18.930;2023-03-31T04:45:19;9.85;;;5.22;;
58137;SDS011;43955;47.362;18.930;2023-03-31T04:47:47;8.05;;;5.00;;
58137;SDS011;43955;47.362;18.930;2023-03-31T04:50:14;8.48;;;4.40;;
58137;SDS011;43955;47.362;18.930;2023-03-31T04:52:43;7.37;;;4.75;;
58137;SDS011;43955;47.362;18.930;2023-03-31T04:55:11;26.08;;;12.13;;
58137;SDS011;43955;47.362;18.930;2023-03-31T04:57:38;7.25;;;4.43;;
58137;SDS011;43955;47.362;18.930;2023-03-31T05:00:05;8.05;;;4.62;;
58137;SDS011;43955;47.362;18.930;2023-03-31T05:02:34;12.23;;;6.35;;
58137;SDS011;43955;47.362;18.930;2023-03-31T05:05:01;11.77;;;7.43;;
58137;SDS011;43955;47.362;18.930;2023-03-31T05:07:29;10.27;;;6.95;;
58137;SDS011;43955;47.362;18.930;2023-03-31T05:09:57;12.07;;;8.27;;
58137;SDS011;43955;47.362;18.930;2023-03-31T05:12:24;13.82;;;10.52;;
58137;SDS011;43955;47.362;18.930;2023-03-31T05:14:52;13.50;;;9.13;;
58137;SDS011;43955;47.362;18.930;2023-03-31T05:17:19;9.35;;;6.32;;
58137;SDS011;43955;47.362;18.930;2023-03-31T05:19:48;18.45;;;8.18;;
58137;SDS011;43955;47.362;18.930;2023-03-31T05:22:15;9.27;;;5.50;;
58137;SDS011;43955;47.362;18.930;2023-03-31T05:24:46;11.07;;;5.50;;
58137;SDS011;43955;47.362;18.930;2023-03-31T05:27:14;10.27;;;5.28;;
58137;SDS011;43955;47.362;18.930;2023-03-31T05:29:41;7.10;;;4.20;;
58137;SDS011;43955;47.362;18.930;2023-03-31T05:32:10;8.57;;;5.20;;
58137;SDS011;43955;47.362;18.930;2023-03-31T05:34:37;8.02;;;5.72;;
58137;SDS011;43955;47.362;18.930;2023-03-31T05:37:04;14.25;;;7.60;;
58137;SDS011;43955;47.362;18.930;2023-03-31T05:39:32;8.70;;;6.35;;
58137;SDS011;43955;47.362;18.930;2023-03-31T05:41:59;9.75;;;6.00;;
58137;SDS011;43955;47.362;18.930;2023-03-31T05:44:26;10.93;;;6.80;;
58137;SDS011;43955;47.362;18.930;2023-03-31T05:46:54;10.30;;;5.82;;
58137;SDS011;43955;47.362;18.930;2023-03-31T05:49:21;9.88;;;7.07;;
58137;SDS011;43955;47.362;18.930;2023-03-31T05:51:48;13.27;;;6.28;;
58137;SDS011;43955;47.362;18.930;2023-03-31T05:54:17;10.73;;;6.78;;
58137;SDS011;43955;47.362;18.930;2023-03-31T05:56:45;10.88;;;7.55;;
58137;SDS011;43955;47.362;18.930;2023-03-31T05:59:12;10.05;;;6.43;;
58137;SDS011;43955;47.362;18.930;2023-03-31T06:01:41;12.85;;;8.07;;
58137;SDS011;43955;47.362;18.930;2023-03-31T06:04:08;11.30;;;7.62;;
58137;SDS011;43955;47.362;18.930;2023-03-31T06:06:36;19.08;;;10.38;;
58137;SDS011;43955;47.362;18.930;2023-03-31T06:09:04;26.52;;;13.65;;
58137;SDS011;43955;47.362;18.930;2023-03-31T06:11:32;13.05;;;9.25;;
58137;SDS011;43955;47.362;18.930;2023-03-31T06:13:59;12.45;;;8.48;;
58137;SDS011;43955;47.362;18.930;2023-03-31T06:16:26;12.43;;;8.45;;
58137;SDS011;43955;47.362;18.930;2023-03-31T06:18:55;14.38;;;10.32;;
58137;SDS011;43955;47.362;18.930;2023-03-31T06:21:22;11.75;;;8.52;;
58137;SDS011;43955;47.362;18.930;2023-03-31T06:23:49;13.68;;;8.57;;
58137;SDS011;43955;47.362;18.930;2023-03-31T06:26:21;12.88;;;9.35;;
58137;SDS011;43955;47.362;18.930;2023-03-31T06:28:48;13.95;;;8.57;;
58137;SDS011;43955;47.362;18.930;2023-03-31T06:31:16;15.85;;;9.77;;
58137;SDS011;43955;47.362;18.930;2023-03-31T06:33:45;14.25;;;8.05;;
58137;SDS011;43955;47.362;18.930;2023-03-31T06:36:14;11.43;;;6.93;;
58137;SDS011;43955;47.362;18.930;2023-03-31T06:38:42;15.20;;;5.03;;
58137;SDS011;43955;47.362;18.930;2023-03-31T06:41:11;5.47;;;3.58;;
58137;SDS011;43955;47.362;18.930;2023-03-31T06:43:39;5.43;;;3.40;;
58137;SDS011;43955;47.362;18.930;2023-03-31T06:46:07;7.47;;;3.87;;
58137;SDS011;43955;47.362;18.930;2023-03-31T06:48:35;10.13;;;4.80;;
58137;SDS011;43955;47.362;18.930;2023-03-31T06:51:03;7.37;;;3.78;;
58137;SDS011;43955;47.362;18.930;2023-03-31T06:53:32;8.05;;;4.05;;
58137;SDS011;43955;47.362;18.930;2023-03-31T06:56:00;7.90;;;4.57;;
58137;SDS011;43955;47.362;18.930;2023-03-31T06:58:27;8.77;;;4.28;;
58137;SDS011;43955;47.362;18.930;2023-03-31T07:00:57;8.57;;;4.97;;
58137;SDS011;43955;47.362;18.930;2023-03-31T07:03:25;6.22;;;4.53;;
58137;SDS011;43955;47.362;18.930;2023-03-31T07:05:53;8.18;;;4.50;;
58137;SDS011;43955;47.362;18.930;2023-03-31T07:08:21;8.07;;;4.68;;
58137;SDS011;43955;47.362;18.930;2023-03-31T07:10:54;9.10;;;4.40;;
58137;SDS011;43955;47.362;18.930;2023-03-31T07:13:24;9.52;;;4.05;;
58137;SDS011;43955;47.362;18.930;2023-03-31T07:15:51;8.02;;;4.28;;
58137;SDS011;43955;47.362;18.930;2023-03-31T07:18:19;8.63;;;4.70;;
58137;SDS011;43955;47.362;18.930;2023-03-31T07:20:47;7.95;;;6.20;;
58137;SDS011;43955;47.362;18.930;2023-03-31T07:23:15;8.10;;;3.95;;
58137;SDS011;43955;47.362;18.930;2023-03-31T07:25:43;11.02;;;3.80;;
58137;SDS011;43955;47.362;18.930;2023-03-31T07:28:11;9.20;;;4.20;;
58137;SDS011;43955;47.362;18.930;2023-03-31T07:30:39;7.78;;;4.32;;
58137;SDS011;43955;47.362;18.930;2023-03-31T07:33:06;6.75;;;3.90;;
58137;SDS011;43955;47.362;18.930;2023-03-31T07:35:38;8.02;;;3.90;;
58137;SDS011;43955;47.362;18.930;2023-03-31T07:38:07;6.60;;;4.70;;
58137;SDS011;43955;47.362;18.930;2023-03-31T07:40:35;7.07;;;4.18;;
58137;SDS011;43955;47.362;18.930;2023-03-31T07:43:03;11.50;;;4.72;;
58137;SDS011;43955;47.362;18.930;2023-03-31T07:45:31;6.07;;;3.97;;
58137;SDS011;43955;47.362;18.930;2023-03-31T07:47:58;4.95;;;3.65;;
58137;SDS011;43955;47.362;18.930;2023-03-31T07:50:26;8.13;;;3.55;;
58137;SDS011;43955;47.362;18.930;2023-03-31T07:52:54;6.05;;;3.42;;
58137;SDS011;43955;47.362;18.930;2023-03-31T07:55:21;5.78;;;3.15;;
58137;SDS011;43955;47.362;18.930;2023-03-31T07:57:49;5.25;;;3.12;;
58137;SDS011;43955;47.362;18.930;2023-03-31T08:00:17;7.32;;;3.50;;
58137;SDS011;43955;47.362;18.930;2023-03-31T08:02:45;8.32;;;3.62;;
58137;SDS011;43955;47.362;18.930;2023-03-31T08:05:14;7.05;;;3.62;;
58137;SDS011;43955;47.362;18.930;2023-03-31T08:07:43;5.25;;;3.20;;
58137;SDS011;43955;47.362;18.930;2023-03-31T08:10:14;5.12;;;2.97;;
58137;SDS011;43955;47.362;18.930;2023-03-31T08:12:43;5.75;;;3.28;;
58137;SDS011;43955;47.362;18.930;2023-03-31T08:15:10;3.90;;;2.80;;
58137;SDS011;43955;47.362;18.930;2023-03-31T08:17:38;6.07;;;3.35;;
58137;SDS011;43955;47.362;18.930;2023-03-31T08:20:06;5.22;;;2.97;;
58137;SDS011;43955;47.362;18.930;2023-03-31T08:22:35;7.75;;;3.20;;
58137;SDS011;43955;47.362;18.930;2023-03-31T08:25:04;6.57;;;3.50;;
58137;SDS011;43955;47.362;18.930;2023-03-31T08:27:32;5.07;;;3.05;;
58137;SDS011;43955;47.362;18.930;2023-03-31T08:30:05;5.12;;;3.00;;
58137;SDS011;43955;47.362;18.930;2023-03-31T08:32:33;5.22;;;2.95;;
58137;SDS011;43955;47.362;18.930;2023-03-31T08:35:01;7.40;;;3.42;;
58137;SDS011;43955;47.362;18.930;2023-03-31T08:37:28;4.70;;;2.87;;
58137;SDS011;43955;47.362;18.930;2023-03-31T08:39:56;4.62;;;3.10;;
58137;SDS011;43955;47.362;18.930;2023-03-31T08:42:40;5.78;;;3.00;;
58137;SDS011;43955;47.362;18.930;2023-03-31T08:45:19;7.25;;;3.20;;
58137;SDS011;43955;47.362;18.930;2023-03-31T08:47:52;4.50;;;2.40;;
58137;SDS011;43955;47.362;18.930;2023-03-31T08:50:46;4.55;;;2.47;;
58137;SDS011;43955;47.362;18.930;2023-03-31T08:53:19;5.10;;;2.72;;
58137;SDS011;43955;47.362;18.930;2023-03-31T08:55:59;3.83;;;2.65;;
58137;SDS011;43955;47.362;18.930;2023-03-31T08:58:29;6.53;;;2.35;;
58137;SDS011;43955;47.362;18.930;2023-03-31T09:12:24;6.45;;;3.12;;
58137;SDS011;43955;47.362;18.930;2023-03-31T09:15:25;3.83;;;2.53;;
58137;SDS011;43955;47.362;18.930;2023-03-31T09:18:40;5.18;;;3.08;;
58137;SDS011;43955;47.362;18.930;2023-03-31T09:21:27;4.12;;;2.90;;
58137;SDS011;43955;47.362;18.930;2023-03-31T09:24:09;3.83;;;2.58;;
58137;SDS011;43955;47.362;18.930;2023-03-31T09:26:46;6.00;;;2.80;;
58137;SDS011;43955;47.362;18.930;2023-03-31T09:30:02;6.43;;;3.05;;
58137;SDS011;43955;47.362;18.930;2023-03-31T09:32:16;6.28;;;2.90;;
58137;SDS011;43955;47.362;18.930;2023-03-31T09:34:44;6.03;;;3.00;;
58137;SDS011;43955;47.362;18.930;2023-03-31T09:37:12;6.57;;;2.87;;
58137;SDS011;43955;47.362;18.930;2023-03-31T09:39:40;4.97;;;2.53;;
58137;SDS011;43955;47.362;18.930;2023-03-31T09:42:09;6.95;;;2.97;;
58137;SDS011;43955;47.362;18.930;2023-03-31T09:44:39;3.90;;;2.37;;
58137;SDS011;43955;47.362;18.930;2023-03-31T09:47:14;3.05;;;2.55;;
58137;SDS011;43955;47.362;18.930;2023-03-31T09:49:44;3.62;;;2.62;;
58137;SDS011;43955;47.362;18.930;2023-03-31T09:52:30;7.35;;;3.08;;
58137;SDS011;43955;47.362;18.930;2023-03-31T09:56:00;3.80;;;2.28;;
58137;SDS011;43955;47.362;18.930;2023-03-31T09:58:06;13.18;;;3.08;;
58137;SDS011;43955;47.362;18.930;2023-03-31T10:00:39;4.72;;;2.78;;
58137;SDS011;43955;47.362;18.930;2023-03-31T10:03:10;5.95;;;2.60;;
58137;SDS011;43955;47.362;18.930;2023-03-31T10:05:47;7.28;;;3.55;;
58137;SDS011;43955;47.362;18.930;2023-03-31T10:11:05;5.20;;;2.92;;
58137;SDS011;43955;47.362;18.930;2023-03-31T10:16:10;4.20;;;2.65;;
58137;SDS011;43955;47.362;18.930;2023-03-31T10:18:40;6.80;;;3.20;;
58137;SDS011;43955;47.362;18.930;2023-03-31T10:21:22;5.40;;;3.10;;
58137;SDS011;43955;47.362;18.930;2023-03-31T10:23:52;4.65;;;2.75;;
58137;SDS011;43955;47.362;18.930;2023-03-31T10:26:21;4.90;;;2.72;;
58137;SDS011;43955;47.362;18.930;2023-03-31T10:28:52;4.78;;;3.37;;
58137;SDS011;43955;47.362;18.930;2023-03-31T10:31:23;6.20;;;2.87;;
58137;SDS011;43955;47.362;18.930;2023-03-31T10:33:52;3.75;;;2.55;;
58137;SDS011;43955;47.362;18.930;2023-03-31T10:36:20;12.90;;;3.37;;
58137;SDS011;43955;47.362;18.930;2023-03-31T10:38:50;3.80;;;2.92;;
58137;SDS011;43955;47.362;18.930;2023-03-31T10:41:19;8.18;;;3.00;;
58137;SDS011;43955;47.362;18.930;2023-03-31T10:43:50;5.28;;;2.50;;
58137;SDS011;43955;47.362;18.930;2023-03-31T10:46:19;4.50;;;2.92;;
58137;SDS011;43955;47.362;18.930;2023-03-31T10:48:46;6.22;;;2.62;;
58137;SDS011;43955;47.362;18.930;2023-03-31T10:53:49;5.85;;;2.95;;
58137;SDS011;43955;47.362;18.930;2023-03-31T10:56:23;6.47;;;3.22;;
58137;SDS011;43955;47.362;18.930;2023-03-31T11:04:41;7.72;;;3.17;;
58137;SDS011;43955;47.362;18.930;2023-03-31T11:12:58;4.40;;;2.95;;
58137;SDS011;43955;47.362;18.930;2023-03-31T11:27:01;4.90;;;2.80;;
58137;SDS011;43955;47.362;18.930;2023-03-31T11:34:50;6.85;;;2.97;;
58137;SDS011;43955;47.362;18.930;2023-03-31T11:45:24;15.25;;;2.95;;
58137;SDS011;43955;47.362;18.930;2023-03-31T11:48:25;4.55;;;2.45;;
58137;SDS011;43955;47.362;18.930;2023-03-31T11:50:59;3.85;;;2.78;;
58137;SDS011;43955;47.362;18.930;2023-03-31T11:53:30;5.62;;;3.05;;
58137;SDS011;43955;47.362;18.930;2023-03-31T11:55:59;4.72;;;2.05;;
58137;SDS011;43955;47.362;18.930;2023-03-31T12:01:13;4.53;;;2.33;;
58137;SDS011;43955;47.362;18.930;2023-03-31T12:03:46;11.18;;;2.95;;
58137;SDS011;43955;47.362;18.930;2023-03-31T12:06:29;4.78;;;2.40;;
58137;SDS011;43955;47.362;18.930;2023-03-31T12:17:16;4.85;;;2.67;;
58137;SDS011;43955;47.362;18.930;2023-03-31T12:19:57;6.37;;;2.65;;
58137;SDS011;43955;47.362;18.930;2023-03-31T12:22:33;7.30;;;2.75;;
58137;SDS011;43955;47.362;18.930;2023-03-31T12:25:05;3.87;;;2.78;;
58137;SDS011;43955;47.362;18.930;2023-03-31T12:27:36;5.40;;;3.65;;
58137;SDS011;43955;47.362;18.930;2023-03-31T12:32:52;6.18;;;2.97;;
58137;SDS011;43955;47.362;18.930;2023-03-31T12:38:45;6.75;;;3.35;;
58137;SDS011;43955;47.362;18.930;2023-03-31T12:41:09;4.78;;;3.08;;
58137;SDS011;43955;47.362;18.930;2023-03-31T12:49:58;7.87;;;4.20;;
58137;SDS011;43955;47.362;18.930;2023-03-31T12:55:20;5.45;;;2.80;;
58137;SDS011;43955;47.362;18.930;2023-03-31T12:57:50;5.75;;;2.92;;
58137;SDS011;43955;47.362;18.930;2023-03-31T13:00:23;7.45;;;3.20;;
58137;SDS011;43955;47.362;18.930;2023-03-31T13:06:00;6.32;;;2.70;;
58137;SDS011;43955;47.362;18.930;2023-03-31T13:11:14;5.93;;;2.47;;
58137;SDS011;43955;47.362;18.930;2023-03-31T13:16:39;5.80;;;2.72;;
58137;SDS011;43955;47.362;18.930;2023-03-31T13:19:08;4.78;;;2.62;;
58137;SDS011;43955;47.362;18.930;2023-03-31T13:21:54;6.82;;;2.75;;
58137;SDS011;43955;47.362;18.930;2023-03-31T13:24:25;8.75;;;2.53;;
58137;SDS011;43955;47.362;18.930;2023-03-31T13:26:55;3.95;;;2.20;;
58137;SDS011;43955;47.362;18.930;2023-03-31T13:29:42;4.87;;;2.65;;
58137;SDS011;43955;47.362;18.930;2023-03-31T13:52:02;5.25;;;2.62;;
58137;SDS011;43955;47.362;18.930;2023-03-31T13:54:43;7.62;;;2.83;;
58137;SDS011;43955;47.362;18.930;2023-03-31T14:03:26;7.72;;;2.58;;
58137;SDS011;43955;47.362;18.930;2023-03-31T14:06:01;8.85;;;2.37;;
58137;SDS011;43955;47.362;18.930;2023-03-31T14:11:28;8.95;;;2.33;;
58137;SDS011;43955;47.362;18.930;2023-03-31T14:16:37;4.28;;;2.12;;
58137;SDS011;43955;47.362;18.930;2023-03-31T14:19:12;6.18;;;2.37;;
58137;SDS011;43955;47.362;18.930;2023-03-31T14:21:45;7.80;;;2.37;;
58137;SDS011;43955;47.362;18.930;2023-03-31T14:32:32;4.05;;;2.50;;
58137;SDS011;43955;47.362;18.930;2023-03-31T14:37:39;6.28;;;2.33;;
58137;SDS011;43955;47.362;18.930;2023-03-31T14:40:09;6.62;;;3.22;;
58137;SDS011;43955;47.362;18.930;2023-03-31T14:42:39;11.20;;;3.20;;
58137;SDS011;43955;47.362;18.930;2023-03-31T14:45:29;5.43;;;2.62;;
58137;SDS011;43955;47.362;18.930;2023-03-31T14:47:58;6.12;;;2.42;;
58137;SDS011;43955;47.362;18.930;2023-03-31T14:50:45;4.30;;;2.47;;
58137;SDS011;43955;47.362;18.930;2023-03-31T14:53:13;5.47;;;2.20;;
58137;SDS011;43955;47.362;18.930;2023-03-31T14:55:42;8.32;;;2.70;;
58137;SDS011;43955;47.362;18.930;2023-03-31T14:58:23;3.80;;;2.65;;
58137;SDS011;43955;47.362;18.930;2023-03-31T15:00:52;4.97;;;2.20;;
58137;SDS011;43955;47.362;18.930;2023-03-31T15:03:20;7.65;;;2.05;;
58137;SDS011;43955;47.362;18.930;2023-03-31T15:05:47;7.43;;;2.65;;
58137;SDS011;43955;47.362;18.930;2023-03-31T15:08:21;11.82;;;2.50;;
58137;SDS011;43955;47.362;18.930;2023-03-31T15:10:50;13.98;;;5.25;;
58137;SDS011;43955;47.362;18.930;2023-03-31T15:13:32;4.78;;;2.20;;
58137;SDS011;43955;47.362;18.930;2023-03-31T15:16:27;4.87;;;2.30;;
58137;SDS011;43955;47.362;18.930;2023-03-31T15:18:57;5.03;;;2.58;;
58137;SDS011;43955;47.362;18.930;2023-03-31T15:21:26;6.00;;;3.17;;
58137;SDS011;43955;47.362;18.930;2023-03-31T15:23:55;6.20;;;2.72;;
58137;SDS011;43955;47.362;18.930;2023-03-31T15:26:27;5.80;;;2.53;;
58137;SDS011;43955;47.362;18.930;2023-03-31T15:29:09;9.43;;;2.90;;
58137;SDS011;43955;47.362;18.930;2023-03-31T15:31:43;4.05;;;2.03;;
58137;SDS011;43955;47.362;18.930;2023-03-31T15:34:21;5.37;;;2.55;;
58137;SDS011;43955;47.362;18.930;2023-03-31T15:36:54;5.87;;;2.70;;
58137;SDS011;43955;47.362;18.930;2023-03-31T15:39:23;11.55;;;2.50;;
58137;SDS011;43955;47.362;18.930;2023-03-31T15:41:52;6.53;;;2.10;;
58137;SDS011;43955;47.362;18.930;2023-03-31T15:44:29;7.60;;;2.30;;
58137;SDS011;43955;47.362;18.930;2023-03-31T15:47:12;6.15;;;2.15;;
58137;SDS011;43955;47.362;18.930;2023-03-31T15:49:58;9.05;;;2.60;;
58137;SDS011;43955;47.362;18.930;2023-03-31T15:52:46;4.53;;;1.65;;
58137;SDS011;43955;47.362;18.930;2023-03-31T15:57:53;6.60;;;1.87;;
58137;SDS011;43955;47.362;18.930;2023-03-31T16:03:22;5.28;;;1.50;;
58137;SDS011;43955;47.362;18.930;2023-03-31T16:05:54;3.83;;;1.67;;
58137;SDS011;43955;47.362;18.930;2023-03-31T16:11:02;10.80;;;2.47;;
58137;SDS011;43955;47.362;18.930;2023-03-31T16:13:33;5.00;;;3.15;;
58137;SDS011;43955;47.362;18.930;2023-03-31T16:16:00;6.30;;;5.70;;
58137;SDS011;43955;47.362;18.930;2023-03-31T16:18:35;18.83;;;16.98;;
58137;SDS011;43955;47.362;18.930;2023-03-31T16:21:06;3.08;;;2.03;;
58137;SDS011;43955;47.362;18.930;2023-03-31T16:23:36;5.47;;;2.72;;
58137;SDS011;43955;47.362;18.930;2023-03-31T16:26:06;10.55;;;2.08;;
58137;SDS011;43955;47.362;18.930;2023-03-31T16:28:35;3.47;;;1.70;;
58137;SDS011;43955;47.362;18.930;2023-03-31T16:31:03;7.70;;;2.55;;
58137;SDS011;43955;47.362;18.930;2023-03-31T16:33:50;5.37;;;2.58;;
58137;SDS011;43955;47.362;18.930;2023-03-31T16:36:19;5.30;;;2.35;;
58137;SDS011;43955;47.362;18.930;2023-03-31T16:38:46;9.77;;;2.72;;
58137;SDS011;43955;47.362;18.930;2023-03-31T16:41:14;3.87;;;2.10;;
58137;SDS011;43955;47.362;18.930;2023-03-31T16:43:43;4.70;;;3.05;;
58137;SDS011;43955;47.362;18.930;2023-03-31T16:46:11;5.35;;;2.10;;
58137;SDS011;43955;47.362;18.930;2023-03-31T16:48:38;5.10;;;2.10;;
58137;SDS011;43955;47.362;18.930;2023-03-31T16:51:06;4.15;;;2.05;;
58137;SDS011;43955;47.362;18.930;2023-03-31T16:53:33;3.70;;;1.95;;
58137;SDS011;43955;47.362;18.930;2023-03-31T16:56:02;6.20;;;2.22;;
58137;SDS011;43955;47.362;18.930;2023-03-31T16:58:31;3.15;;;2.03;;
58137;SDS011;43955;47.362;18.930;2023-03-31T17:00:58;5.18;;;2.00;;
58137;SDS011;43955;47.362;18.930;2023-03-31T17:03:26;6.45;;;2.70;;
58137;SDS011;43955;47.362;18.930;2023-03-31T17:05:54;5.65;;;2.42;;
58137;SDS011;43955;47.362;18.930;2023-03-31T17:08:25;6.62;;;2.65;;
58137;SDS011;43955;47.362;18.930;2023-03-31T17:10:54;11.32;;;2.92;;
58137;SDS011;43955;47.362;18.930;2023-03-31T17:13:24;6.65;;;1.98;;
58137;SDS011;43955;47.362;18.930;2023-03-31T17:15:52;5.75;;;2.53;;
58137;SDS011;43955;47.362;18.930;2023-03-31T17:18:34;4.45;;;2.42;;
58137;SDS011;43955;47.362;18.930;2023-03-31T17:21:09;3.22;;;1.98;;
58137;SDS011;43955;47.362;18.930;2023-03-31T17:23:38;5.60;;;2.60;;
58137;SDS011;43955;47.362;18.930;2023-03-31T17:26:05;12.82;;;2.85;;
58137;SDS011;43955;47.362;18.930;2023-03-31T17:28:35;4.05;;;2.53;;
58137;SDS011;43955;47.362;18.930;2023-03-31T17:31:12;7.47;;;2.45;;
58137;SDS011;43955;47.362;18.930;2023-03-31T17:33:44;5.40;;;2.15;;
58137;SDS011;43955;47.362;18.930;2023-03-31T17:36:12;5.72;;;2.70;;
58137;SDS011;43955;47.362;18.930;2023-03-31T17:38:41;5.07;;;2.35;;
58137;SDS011;43955;47.362;18.930;2023-03-31T17:41:09;6.37;;;2.45;;
58137;SDS011;43955;47.362;18.930;2023-03-31T17:43:39;7.75;;;3.22;;
58137;SDS011;43955;47.362;18.930;2023-03-31T17:46:07;7.35;;;2.92;;
58137;SDS011;43955;47.362;18.930;2023-03-31T17:48:40;4.22;;;2.42;;
58137;SDS011;43955;47.362;18.930;2023-03-31T17:51:09;7.32;;;2.30;;
58137;SDS011;43955;47.362;18.930;2023-03-31T17:53:40;4.45;;;2.30;;
58137;SDS011;43955;47.362;18.930;2023-03-31T17:56:08;4.47;;;2.60;;
58137;SDS011;43955;47.362;18.930;2023-03-31T17:58:35;7.97;;;3.75;;
58137;SDS011;43955;47.362;18.930;2023-03-31T18:01:04;20.70;;;3.60;;
58137;SDS011;43955;47.362;18.930;2023-03-31T18:03:33;7.18;;;2.92;;
58137;SDS011;43955;47.362;18.930;2023-03-31T18:06:04;6.53;;;2.67;;
58137;SDS011;43955;47.362;18.930;2023-03-31T18:08:34;8.48;;;2.97;;